createdAt,value
2023-04-22T00:02:02.502Z,17.63
2023-04-22T00:04:29.953Z,21.63
2023-04-22T00:06:56.878Z,28.93
2023-04-22T00:09:24.186Z,21.43
2023-04-22T00:11:51.475Z,24.07
2023-04-22T00:14:18.052Z,26.50
2023-04-22T00:16:44.702Z,21.90
2023-04-22T00:19:11.256Z,34.17
2023-04-22T00:21:37.783Z,29.30
2023-04-22T00:24:04.653Z,23.77
2023-04-22T00:26:31.234Z,30.00
2023-04-22T00:28:57.850Z,28.37
2023-04-22T00:31:24.715Z,27.43
2023-04-22T00:33:51.327Z,28.40
2023-04-22T00:36:18.038Z,30.00
2023-04-22T00:38:48.112Z,28.60
2023-04-22T00:41:14.708Z,33.13
2023-04-22T00:43:41.563Z,30.20
2023-04-22T00:46:08.899Z,28.83
2023-04-22T00:48:38.616Z,22.50
2023-04-22T00:51:05.560Z,20.43
2023-04-22T00:53:32.368Z,20.40
2023-04-22T00:55:59.377Z,20.80
2023-04-22T00:58:27.662Z,18.03
2023-04-22T01:00:54.587Z,19.77
2023-04-22T01:03:22.348Z,17.00
2023-04-22T01:05:49.714Z,20.10
2023-04-22T01:08:16.767Z,18.30
2023-04-22T01:10:43.492Z,18.63
2023-04-22T01:13:09.987Z,24.27
2023-04-22T01:15:37.436Z,22.00
2023-04-22T01:18:04.201Z,25.40
2023-04-22T01:20:30.892Z,21.23
2023-04-22T01:22:58.203Z,19.03
2023-04-22T01:25:25.934Z,19.70
2023-04-22T01:27:53.083Z,26.10
2023-04-22T01:30:19.749Z,18.50
2023-04-22T01:32:46.510Z,16.47
2023-04-22T01:35:13.458Z,21.53
2023-04-22T01:37:40.280Z,17.10
2023-04-22T01:40:09.304Z,27.33
2023-04-22T01:42:36.126Z,20.63
2023-04-22T01:45:02.730Z,19.70
2023-04-22T01:47:29.522Z,21.37
2023-04-22T01:49:57.240Z,16.87
2023-04-22T01:52:23.894Z,15.20
2023-04-22T01:54:51.127Z,15.17
2023-04-22T01:57:17.844Z,13.80
2023-04-22T01:59:44.403Z,15.90
2023-04-22T02:02:10.992Z,13.93
2023-04-22T02:04:37.587Z,14.47
2023-04-22T02:07:04.296Z,16.30
2023-04-22T02:09:33.120Z,12.70
2023-04-22T02:11:59.675Z,13.20
2023-04-22T02:14:26.494Z,11.67
2023-04-22T02:16:54.355Z,18.57
2023-04-22T02:19:20.836Z,12.33
2023-04-22T02:21:47.366Z,18.70
2023-04-22T02:24:13.855Z,20.70
2023-04-22T02:26:41.438Z,21.60
2023-04-22T02:29:08.092Z,21.00
2023-04-22T02:31:34.705Z,22.20
2023-04-22T02:34:01.943Z,23.53
2023-04-22T02:36:28.836Z,30.70
2023-04-22T02:38:55.651Z,29.23
2023-04-22T02:41:22.250Z,31.57
2023-04-22T02:43:49.075Z,21.17
2023-04-22T02:46:18.799Z,26.33
2023-04-22T02:48:45.790Z,28.03
2023-04-22T02:51:12.496Z,29.63
2023-04-22T02:53:39.046Z,28.30
2023-04-22T02:56:06.023Z,26.33
2023-04-22T02:58:33.706Z,33.23
2023-04-22T03:01:00.364Z,28.40
2023-04-22T03:03:27.299Z,31.17
2023-04-22T03:05:54.017Z,34.20
2023-04-22T03:08:20.887Z,32.40
2023-04-22T03:10:47.990Z,36.67
2023-04-22T03:13:14.708Z,33.30
2023-04-22T03:15:41.856Z,33.67
2023-04-22T03:18:08.620Z,31.33
2023-04-22T03:20:35.727Z,32.33
2023-04-22T03:23:02.913Z,28.93
2023-04-22T03:25:29.908Z,30.60
2023-04-22T03:27:57.318Z,33.73
2023-04-22T03:30:24.881Z,28.93
2023-04-22T03:32:53.539Z,26.77
2023-04-22T03:35:24.419Z,27.03
2023-04-22T03:37:52.010Z,30.43
2023-04-22T03:40:23.958Z,29.10
2023-04-22T03:42:50.686Z,33.67
2023-04-22T03:45:19.620Z,32.50
2023-04-22T03:47:53.321Z,31.07
2023-04-22T03:50:25.819Z,29.20
2023-04-22T03:52:53.715Z,30.30
2023-04-22T03:55:21.192Z,38.40
2023-04-22T03:57:50.264Z,30.23
2023-04-22T04:00:17.113Z,35.37
2023-04-22T04:02:49.881Z,32.93
2023-04-22T04:05:19.012Z,34.87
2023-04-22T04:07:47.321Z,40.83
2023-04-22T04:10:13.797Z,39.77
2023-04-22T04:12:40.544Z,32.83
2023-04-22T04:15:07.712Z,38.47
2023-04-22T04:17:35.566Z,40.80
2023-04-22T04:20:03.956Z,38.10
2023-04-22T04:22:31.104Z,35.50
2023-04-22T04:25:01.662Z,42.53
2023-04-22T04:27:35.150Z,32.57
2023-04-22T04:30:04.542Z,33.10
2023-04-22T04:32:37.438Z,32.43
2023-04-22T04:35:07.874Z,32.23
2023-04-22T04:37:34.552Z,29.70
2023-04-22T04:40:07.697Z,28.73
2023-04-22T04:43:02.737Z,21.13
2023-04-22T04:45:39.069Z,24.43
2023-04-22T04:48:10.006Z,18.80
2023-04-22T04:50:42.385Z,18.80
2023-04-22T04:53:09.885Z,21.93
2023-04-22T04:55:40.975Z,19.60
2023-04-22T04:58:15.248Z,24.33
2023-04-22T05:00:42.202Z,22.70
2023-04-22T05:03:10.180Z,18.27
2023-04-22T05:05:36.863Z,21.97
2023-04-22T05:08:03.419Z,17.23
2023-04-22T05:10:31.099Z,18.03
2023-04-22T05:12:57.683Z,18.40
2023-04-22T05:15:25.711Z,17.70
2023-04-22T05:17:52.362Z,17.73
2023-04-22T05:20:18.876Z,14.63
2023-04-22T05:22:46.158Z,16.40
2023-04-22T05:25:14.398Z,14.00
2023-04-22T05:27:49.310Z,12.20
2023-04-22T05:30:18.268Z,16.63
2023-04-22T05:32:45.077Z,16.23
2023-04-22T05:35:11.652Z,14.33
2023-04-22T05:37:38.937Z,11.60
2023-04-22T05:40:06.876Z,14.07
2023-04-22T05:42:33.524Z,20.20
2023-04-22T05:45:00.177Z,11.77
2023-04-22T05:47:28.352Z,11.67
2023-04-22T05:49:55.792Z,11.37
2023-04-22T05:52:31.736Z,8.70
2023-04-22T05:55:05.844Z,11.33
2023-04-22T05:57:32.444Z,9.60
2023-04-22T06:00:00.911Z,10.00
2023-04-22T06:02:27.712Z,7.70
2023-04-22T06:04:54.773Z,8.17
2023-04-22T06:07:22.674Z,5.07
2023-04-22T06:09:49.160Z,10.00
2023-04-22T06:12:15.754Z,7.63
2023-04-22T06:14:42.708Z,5.73
2023-04-22T06:17:09.664Z,5.90
2023-04-22T06:19:37.088Z,4.93
2023-04-22T06:22:03.917Z,6.20
2023-04-22T06:24:30.527Z,4.63
2023-04-22T06:26:58.390Z,5.30
2023-04-22T06:29:27.918Z,5.23
2023-04-22T06:31:54.928Z,5.70
2023-04-22T06:34:23.540Z,5.83
2023-04-22T06:36:51.214Z,4.50
2023-04-22T06:39:17.876Z,6.93
2023-04-22T06:42:01.476Z,4.67
2023-04-22T06:44:43.684Z,6.60
2023-04-22T06:47:29.193Z,5.20
2023-04-22T06:50:02.425Z,4.10
2023-04-22T06:52:36.354Z,3.97
2023-04-22T06:55:03.798Z,5.60
2023-04-22T06:57:31.056Z,4.13
2023-04-22T06:59:57.665Z,3.87
2023-04-22T07:02:26.930Z,4.20
2023-04-22T07:04:53.521Z,3.00
2023-04-22T07:07:20.468Z,4.37
2023-04-22T07:09:47.684Z,5.10
2023-04-22T07:12:14.299Z,4.03
2023-04-22T07:14:44.611Z,7.10
2023-04-22T07:17:12.010Z,3.13
2023-04-22T07:19:39.014Z,6.50
2023-04-22T07:22:06.845Z,5.13
2023-04-22T07:24:33.381Z,2.40
2023-04-22T07:26:59.911Z,4.43
2023-04-22T07:29:26.446Z,4.13
2023-04-22T07:31:53.035Z,6.23
2023-04-22T07:34:19.584Z,4.00
2023-04-22T07:36:46.279Z,3.20
2023-04-22T07:39:12.756Z,4.03
2023-04-22T07:41:39.258Z,3.20
2023-04-22T07:44:05.824Z,3.50
2023-04-22T07:46:32.369Z,4.63
2023-04-22T07:48:58.924Z,4.93
2023-04-22T07:51:26.586Z,5.00
2023-04-22T07:53:53.337Z,4.43
2023-04-22T07:56:19.843Z,4.50
2023-04-22T07:58:46.283Z,4.33
2023-04-22T08:01:12.962Z,6.27
2023-04-22T08:03:39.664Z,4.33
2023-04-22T08:06:06.430Z,3.60
2023-04-22T08:08:32.855Z,3.67
2023-04-22T08:10:59.394Z,5.53
2023-04-22T08:13:26.311Z,3.70
2023-04-22T08:15:52.852Z,4.07
2023-04-22T08:18:19.455Z,5.43
2023-04-22T08:20:46.717Z,6.63
2023-04-22T08:23:13.583Z,3.77
2023-04-22T08:25:40.112Z,3.60
2023-04-22T08:28:06.656Z,3.27
2023-04-22T08:30:33.202Z,3.93
2023-04-22T08:32:59.894Z,2.83
2023-04-22T08:35:27.124Z,5.50
2023-04-22T08:37:53.749Z,3.10
2023-04-22T08:40:20.283Z,3.67
2023-04-22T08:42:46.792Z,2.70
2023-04-22T08:45:13.353Z,2.53
2023-04-22T08:47:40.549Z,2.37
2023-04-22T08:50:08.625Z,2.30
2023-04-22T08:52:35.249Z,4.13
2023-04-22T08:55:02.202Z,2.30
2023-04-22T08:57:29.876Z,2.70
2023-04-22T08:59:56.828Z,6.13
2023-04-22T09:02:24.383Z,1.90
2023-04-22T09:04:52.308Z,4.07
2023-04-22T09:07:26.782Z,3.03
2023-04-22T09:09:54.933Z,3.17
2023-04-22T09:12:21.612Z,13.47
2023-04-22T09:14:48.155Z,1.90
2023-04-22T09:17:18.743Z,2.80
2023-04-22T09:19:45.903Z,2.43
2023-04-22T09:22:14.810Z,2.73
2023-04-22T09:24:53.598Z,3.47
2023-04-22T09:27:21.544Z,3.13
2023-04-22T09:29:48.808Z,2.40
2023-04-22T09:32:15.478Z,2.60
2023-04-22T09:34:45.890Z,2.70
2023-04-22T09:37:12.518Z,4.10
2023-04-22T09:39:41.793Z,2.07
2023-04-22T09:42:08.365Z,2.67
2023-04-22T09:44:35.448Z,2.73
2023-04-22T09:47:01.991Z,4.40
2023-04-22T09:49:28.595Z,2.00
2023-04-22T09:51:56.284Z,2.40
2023-04-22T09:54:23.387Z,3.43
2023-04-22T09:56:50.739Z,3.03
2023-04-22T09:59:23.925Z,2.33
2023-04-22T10:01:58.278Z,2.10
2023-04-22T10:04:25.941Z,2.03
2023-04-22T10:06:53.501Z,1.97
2023-04-22T10:09:22.180Z,3.57
2023-04-22T10:11:49.496Z,3.03
2023-04-22T10:14:16.088Z,4.70
2023-04-22T10:16:43.714Z,4.50
2023-04-22T10:19:11.100Z,3.13
2023-04-22T10:21:37.996Z,2.90
2023-04-22T10:24:05.387Z,3.63
2023-04-22T10:26:42.756Z,2.07
2023-04-22T10:29:12.853Z,3.87
2023-04-22T10:31:39.488Z,2.47
2023-04-22T10:34:13.202Z,2.50
2023-04-22T10:36:59.998Z,3.80
2023-04-22T10:39:27.492Z,2.70
2023-04-22T10:41:56.733Z,2.07
2023-04-22T10:44:27.426Z,2.23
2023-04-22T10:46:53.844Z,4.50
2023-04-22T10:49:21.447Z,2.03
2023-04-22T10:51:48.160Z,2.30
2023-04-22T10:54:32.507Z,3.80
2023-04-22T10:57:07.210Z,6.10
2023-04-22T10:59:34.970Z,3.60
2023-04-22T11:02:02.391Z,2.53
2023-04-22T11:04:29.158Z,10.57
2023-04-22T11:07:16.461Z,2.80
2023-04-22T11:09:47.580Z,4.90
2023-04-22T11:12:33.073Z,4.27
2023-04-22T11:14:59.743Z,5.20
2023-04-22T11:17:26.366Z,2.07
2023-04-22T11:19:56.224Z,2.70
2023-04-22T11:22:24.012Z,3.53
2023-04-22T11:24:54.539Z,3.43
2023-04-22T11:27:26.188Z,2.83
2023-04-22T11:30:11.849Z,5.00
2023-04-22T11:32:39.561Z,5.53
2023-04-22T11:35:07.552Z,6.40
2023-04-22T11:37:50.657Z,3.13
2023-04-22T11:40:28.938Z,4.27
2023-04-22T11:42:58.038Z,2.37
2023-04-22T11:45:25.688Z,3.80
2023-04-22T11:47:52.810Z,3.40
2023-04-22T11:50:24.037Z,2.43
2023-04-22T11:52:53.750Z,2.50
2023-04-22T11:55:30.382Z,3.40
2023-04-22T11:58:07.068Z,2.40
2023-04-22T12:00:37.142Z,3.40
2023-04-22T12:03:04.922Z,3.73
2023-04-22T12:05:34.854Z,4.20
2023-04-22T12:08:03.532Z,5.20
2023-04-22T12:10:30.562Z,4.73
2023-04-22T12:12:57.220Z,5.33
2023-04-22T12:15:23.926Z,3.37
2023-04-22T12:17:51.245Z,6.33
2023-04-22T12:20:17.944Z,3.30
2023-04-22T12:22:44.400Z,1.87
2023-04-22T12:25:10.927Z,1.90
2023-04-22T12:27:37.698Z,1.90
2023-04-22T12:30:04.526Z,1.00
2023-04-22T12:32:32.915Z,4.57
2023-04-22T12:34:59.411Z,2.43
2023-04-22T12:37:26.800Z,2.43
2023-04-22T12:39:53.394Z,6.83
2023-04-22T12:42:19.902Z,2.47
2023-04-22T12:44:46.952Z,2.03
2023-04-22T12:47:13.639Z,3.13
2023-04-22T12:49:40.304Z,2.50
2023-04-22T12:52:07.152Z,1.73
2023-04-22T12:54:33.767Z,2.97
2023-04-22T12:57:01.529Z,2.33
2023-04-22T12:59:28.537Z,2.50
2023-04-22T13:01:55.682Z,7.20
2023-04-22T13:04:22.275Z,5.80
2023-04-22T13:06:56.225Z,2.50
2023-04-22T13:09:23.904Z,2.20
2023-04-22T13:11:50.555Z,2.20
2023-04-22T13:14:17.445Z,1.97
2023-04-22T13:16:44.480Z,2.77
2023-04-22T13:19:11.639Z,1.93
2023-04-22T13:21:38.204Z,2.63
2023-04-22T13:24:04.840Z,1.57
2023-04-22T13:26:31.445Z,4.57
2023-04-22T13:28:57.965Z,2.17
2023-04-22T13:31:24.834Z,2.70
2023-04-22T13:33:51.367Z,2.07
2023-04-22T13:36:17.892Z,2.50
2023-04-22T13:38:44.701Z,2.30
2023-04-22T13:41:11.508Z,3.13
2023-04-22T13:43:38.060Z,2.33
2023-04-22T13:46:04.750Z,3.53
2023-04-22T13:48:32.238Z,3.93
2023-04-22T13:50:58.807Z,2.93
2023-04-22T13:53:25.431Z,2.23
2023-04-22T13:55:52.053Z,2.33
2023-04-22T13:58:18.783Z,7.90
2023-04-22T14:00:45.350Z,2.30
2023-04-22T14:03:12.256Z,3.20
2023-04-22T14:05:38.916Z,2.30
2023-04-22T14:08:05.617Z,2.03
2023-04-22T14:10:32.285Z,3.07
2023-04-22T14:12:58.981Z,4.43
2023-04-22T14:15:25.741Z,2.33
2023-04-22T14:17:53.078Z,2.47
2023-04-22T14:20:19.663Z,1.80
2023-04-22T14:22:46.710Z,5.10
2023-04-22T14:25:13.455Z,4.67
2023-04-22T14:27:39.989Z,1.40
2023-04-22T14:30:08.360Z,2.40
2023-04-22T14:32:35.973Z,1.83
2023-04-22T14:35:02.683Z,3.20
2023-04-22T14:37:29.598Z,2.40
2023-04-22T14:39:57.529Z,1.00
2023-04-22T14:42:24.773Z,1.27
2023-04-22T14:44:51.271Z,1.07
2023-04-22T14:47:17.911Z,1.50
2023-04-22T14:49:44.530Z,1.27
2023-04-22T14:52:11.165Z,0.80
2023-04-22T14:54:37.781Z,0.80
2023-04-22T14:57:04.354Z,1.73
2023-04-22T14:59:30.969Z,1.63
2023-04-22T15:01:57.881Z,1.20
2023-04-22T15:04:24.684Z,2.27
2023-04-22T15:06:56.599Z,1.10
2023-04-22T15:09:24.441Z,1.47
2023-04-22T15:11:51.662Z,1.20
2023-04-22T15:14:18.349Z,2.40
2023-04-22T15:16:44.866Z,1.83
2023-04-22T15:19:11.491Z,8.40
2023-04-22T15:21:38.127Z,1.40
2023-04-22T15:24:04.812Z,4.17
2023-04-22T15:26:31.526Z,1.20
2023-04-22T15:28:58.175Z,2.83
2023-04-22T15:31:24.801Z,1.67
2023-04-22T15:33:52.349Z,1.33
2023-04-22T15:36:22.018Z,0.80
2023-04-22T15:38:53.297Z,2.03
2023-04-22T15:41:20.171Z,2.10
2023-04-22T15:43:46.760Z,1.67
2023-04-22T15:46:14.692Z,0.97
2023-04-22T15:48:44.516Z,2.83
2023-04-22T15:51:11.522Z,1.03
2023-04-22T15:53:38.070Z,1.93
2023-04-22T15:56:04.823Z,1.37
2023-04-22T15:58:34.579Z,1.60
2023-04-22T16:01:11.467Z,3.50
2023-04-22T16:03:45.291Z,2.03
2023-04-22T16:06:12.015Z,3.03
2023-04-22T16:08:39.010Z,3.73
2023-04-22T16:11:05.734Z,1.63
2023-04-22T16:13:32.304Z,2.23
2023-04-22T16:15:58.927Z,2.93
2023-04-22T16:18:26.605Z,3.47
2023-04-22T16:20:53.351Z,5.40
2023-04-22T16:23:20.132Z,2.47
2023-04-22T16:25:46.793Z,2.30
2023-04-22T16:28:14.817Z,3.00
2023-04-22T16:30:41.505Z,1.63
2023-04-22T16:33:08.100Z,2.20
2023-04-22T16:35:34.839Z,5.43
2023-04-22T16:38:01.641Z,3.53
2023-04-22T16:40:28.253Z,3.33
2023-04-22T16:42:55.559Z,1.73
2023-04-22T16:45:22.097Z,2.33
2023-04-22T16:47:48.844Z,1.87
2023-04-22T16:50:15.490Z,3.30
2023-04-22T16:52:42.607Z,5.70
2023-04-22T16:55:09.391Z,1.90
2023-04-22T16:57:36.038Z,3.00
2023-04-22T17:00:02.818Z,2.27
2023-04-22T17:02:29.441Z,2.73
2023-04-22T17:04:56.042Z,2.90
2023-04-22T17:07:22.733Z,3.33
2023-04-22T17:09:49.831Z,1.90
2023-04-22T17:12:16.976Z,5.90
2023-04-22T17:14:43.559Z,3.50
2023-04-22T17:17:10.128Z,2.20
2023-04-22T17:19:37.120Z,4.40
2023-04-22T17:22:04.267Z,1.80
2023-04-22T17:24:30.996Z,3.40
2023-04-22T17:26:57.691Z,4.43
2023-04-22T17:29:24.605Z,4.90
2023-04-22T17:31:51.358Z,1.80
2023-04-22T17:34:18.361Z,3.17
2023-04-22T17:36:45.270Z,2.07
2023-04-22T17:39:11.910Z,3.77
2023-04-22T17:41:38.515Z,3.03
2023-04-22T17:44:08.809Z,2.47
2023-04-22T17:46:35.578Z,3.27
2023-04-22T17:49:02.519Z,6.00
2023-04-22T17:51:29.266Z,3.53
2023-04-22T17:53:57.150Z,3.33
2023-04-22T17:56:24.811Z,2.30
2023-04-22T17:58:51.805Z,1.57
2023-04-22T18:01:18.553Z,4.60
2023-04-22T18:03:45.298Z,4.67
2023-04-22T18:06:11.913Z,3.53
2023-04-22T18:08:38.625Z,4.67
2023-04-22T18:11:05.796Z,3.40
2023-04-22T18:13:32.962Z,3.07
2023-04-22T18:15:59.654Z,3.27
2023-04-22T18:18:26.823Z,5.30
2023-04-22T18:20:53.553Z,4.83
2023-04-22T18:23:20.400Z,5.67
2023-04-22T18:25:48.033Z,5.50
2023-04-22T18:28:15.123Z,6.60
2023-04-22T18:30:41.831Z,6.33
2023-04-22T18:33:08.387Z,9.53
2023-04-22T18:35:35.920Z,7.37
2023-04-22T18:38:02.481Z,9.40
2023-04-22T18:40:29.000Z,10.07
2023-04-22T18:42:56.200Z,9.87
2023-04-22T18:45:23.219Z,10.10
2023-04-22T18:47:50.739Z,10.37
2023-04-22T18:50:17.368Z,16.87
2023-04-22T18:52:45.532Z,13.80
2023-04-22T18:55:12.252Z,14.57
2023-04-22T18:57:38.802Z,17.63
2023-04-22T19:00:06.361Z,17.33
2023-04-22T19:02:37.252Z,22.93
2023-04-22T19:05:05.363Z,19.63
2023-04-22T19:07:31.957Z,16.80
2023-04-22T19:09:58.456Z,18.33
2023-04-22T19:12:24.988Z,19.93
2023-04-22T19:14:51.686Z,18.50
2023-04-22T19:17:18.407Z,22.30
2023-04-22T19:19:46.533Z,20.03
2023-04-22T19:22:13.451Z,21.07
2023-04-22T19:24:40.079Z,18.67
2023-04-22T19:27:12.251Z,21.23
2023-04-22T19:29:42.525Z,18.17
2023-04-22T19:32:10.846Z,20.97
2023-04-22T19:34:38.562Z,17.70
2023-04-22T19:37:05.552Z,15.10
2023-04-22T19:39:32.160Z,13.47
2023-04-22T19:41:59.574Z,18.33
2023-04-22T19:44:26.235Z,16.90
2023-04-22T19:46:53.121Z,16.87
2023-04-22T19:49:19.976Z,16.40
2023-04-22T19:51:46.800Z,15.93
2023-04-22T19:54:13.861Z,18.07
2023-04-22T19:56:41.495Z,20.13
2023-04-22T19:59:08.454Z,22.37
2023-04-22T20:01:35.626Z,19.70
2023-04-22T20:04:04.183Z,22.70
2023-04-22T20:06:32.574Z,21.53
2023-04-22T20:08:59.775Z,20.00
2023-04-22T20:11:26.681Z,22.17
2023-04-22T20:13:53.358Z,17.80
2023-04-22T20:16:20.683Z,26.90
2023-04-22T20:18:48.379Z,22.10
2023-04-22T20:21:14.986Z,21.00
2023-04-22T20:23:42.065Z,21.40
2023-04-22T20:26:09.488Z,22.97
2023-04-22T20:28:49.800Z,22.30
2023-04-22T20:31:18.681Z,22.83
2023-04-22T20:33:46.516Z,19.80
2023-04-22T20:36:15.124Z,23.07
2023-04-22T20:38:43.038Z,22.03
2023-04-22T20:41:10.133Z,24.20
2023-04-22T20:43:36.898Z,26.10
2023-04-22T20:46:03.815Z,26.47
2023-04-22T20:48:30.570Z,21.70
2023-04-22T20:50:57.294Z,27.00
2023-04-22T20:53:24.692Z,28.00
2023-04-22T20:55:51.492Z,23.50
2023-04-22T20:58:18.250Z,23.33
2023-04-22T21:00:45.792Z,23.27
2023-04-22T21:03:13.836Z,31.57
2023-04-22T21:05:42.878Z,25.10
2023-04-22T21:08:18.545Z,26.23
2023-04-22T21:10:45.381Z,25.80
2023-04-22T21:13:12.073Z,26.63
2023-04-22T21:15:39.900Z,28.73
2023-04-22T21:18:07.539Z,27.63
2023-04-22T21:20:41.732Z,30.37
2023-04-22T21:23:10.099Z,26.30
2023-04-22T21:25:36.886Z,26.10
2023-04-22T21:28:03.728Z,30.60
2023-04-22T21:30:30.621Z,27.07
2023-04-22T21:32:57.363Z,31.07
2023-04-22T21:35:24.413Z,25.67
2023-04-22T21:37:52.143Z,25.17
2023-04-22T21:40:18.703Z,31.60
2023-04-22T21:42:45.620Z,28.27
2023-04-22T21:45:12.246Z,27.70
2023-04-22T21:47:38.780Z,29.70
2023-04-22T21:50:05.724Z,30.50
2023-04-22T21:52:32.460Z,36.40
2023-04-22T21:54:59.040Z,25.97
2023-04-22T21:57:25.652Z,28.97
2023-04-22T21:59:52.285Z,41.40
2023-04-22T22:02:19.149Z,33.83
2023-04-22T22:04:46.143Z,36.93
2023-04-22T22:07:14.654Z,35.67
2023-04-22T22:09:43.359Z,36.70
2023-04-22T22:12:15.441Z,35.83
2023-04-22T22:14:43.240Z,37.43
2023-04-22T22:17:09.960Z,34.50
2023-04-22T22:19:36.723Z,37.70
2023-04-22T22:22:03.199Z,41.37
2023-04-22T22:24:29.791Z,33.30
2023-04-22T22:26:57.920Z,33.70
2023-04-22T22:29:24.480Z,37.57
2023-04-22T22:31:51.058Z,36.37
2023-04-22T22:34:17.628Z,39.00
2023-04-22T22:36:44.204Z,38.10
2023-04-22T22:39:14.290Z,42.33
2023-04-22T22:41:43.103Z,44.70
2023-04-22T22:44:10.495Z,41.50
2023-04-22T22:46:37.582Z,41.13
2023-04-22T22:49:04.045Z,41.37
2023-04-22T22:51:30.730Z,55.47
2023-04-22T22:53:57.280Z,39.37
2023-04-22T22:56:24.150Z,42.60
2023-04-22T22:58:50.747Z,41.63
2023-04-22T23:01:17.344Z,41.23
2023-04-22T23:03:44.410Z,47.97
2023-04-22T23:06:11.871Z,43.30
2023-04-22T23:08:38.358Z,43.47
2023-04-22T23:11:05.013Z,40.00
2023-04-22T23:13:31.613Z,47.93
2023-04-22T23:15:58.484Z,43.30
2023-04-22T23:18:25.032Z,43.17
2023-04-22T23:20:51.780Z,49.87
2023-04-22T23:23:18.752Z,48.47
2023-04-22T23:25:46.944Z,37.37
2023-04-22T23:28:13.843Z,44.23
2023-04-22T23:30:40.873Z,50.73
2023-04-22T23:33:08.640Z,46.20
2023-04-22T23:35:36.306Z,45.97
2023-04-22T23:38:03.875Z,44.50
2023-04-22T23:40:30.413Z,40.97
2023-04-22T23:42:57.114Z,38.90
2023-04-22T23:45:23.703Z,42.57
2023-04-22T23:47:50.302Z,44.23
2023-04-22T23:50:19.113Z,45.27
2023-04-22T23:52:46.668Z,39.87
2023-04-22T23:55:15.758Z,42.43
2023-04-22T23:57:42.496Z,42.90
